createdAt,value
2019-05-28T00:00:07.518Z,24.80
2019-05-28T00:02:38.491Z,24.80
2019-05-28T00:05:07.861Z,24.80
2019-05-28T00:07:37.199Z,24.80
2019-05-28T00:10:06.819Z,24.80
2019-05-28T00:12:36.635Z,24.80
2019-05-28T00:15:07.697Z,24.80
2019-05-28T00:17:37.636Z,24.80
2019-05-28T00:20:07.332Z,24.80
2019-05-28T00:22:36.708Z,24.80
2019-05-28T00:25:06.267Z,24.80
2019-05-28T00:27:35.738Z,24.80
2019-05-28T00:30:19.310Z,24.80
2019-05-28T00:32:39.116Z,24.80
2019-05-28T00:35:08.514Z,24.80
2019-05-28T00:37:38.017Z,24.80
2019-05-28T00:40:07.405Z,24.80
2019-05-28T00:42:36.815Z,24.80
2019-05-28T00:45:07.669Z,24.80
2019-05-28T00:47:36.971Z,24.80
2019-05-28T00:50:09.764Z,24.80
2019-05-28T00:52:39.148Z,24.80
2019-05-28T00:55:08.649Z,24.80
2019-05-28T00:57:41.431Z,24.80
2019-05-28T01:00:10.811Z,24.80
2019-05-28T01:02:40.889Z,24.80
2019-05-28T01:05:10.448Z,24.80
2019-05-28T01:07:39.850Z,24.80
2019-05-28T01:10:09.211Z,24.80
2019-05-28T01:12:38.551Z,24.80
2019-05-28T01:15:08.216Z,24.80
2019-05-28T01:17:37.629Z,24.80
2019-05-28T01:20:07.267Z,24.80
2019-05-28T01:22:36.591Z,24.70
2019-05-28T01:25:06.483Z,24.80
2019-05-28T01:27:36.896Z,24.80
2019-05-28T01:30:06.987Z,24.80
2019-05-28T01:32:36.339Z,24.80
2019-05-28T01:35:08.662Z,24.80
2019-05-28T01:37:37.936Z,24.80
2019-05-28T01:40:07.395Z,24.80
2019-05-28T01:42:36.831Z,24.80
2019-05-28T01:45:08.187Z,24.80
2019-05-28T01:47:37.565Z,24.80
2019-05-28T01:50:08.513Z,24.70
2019-05-28T01:52:37.903Z,24.70
2019-05-28T01:55:07.367Z,24.70
2019-05-28T01:57:36.668Z,24.80
2019-05-28T02:00:07.820Z,24.80
2019-05-28T02:02:37.246Z,24.70
2019-05-28T02:05:08.550Z,24.80
2019-05-28T02:07:37.907Z,24.70
2019-05-28T02:10:07.242Z,24.70
2019-05-28T02:12:36.621Z,24.80
2019-05-28T02:15:08.833Z,24.70
2019-05-28T02:17:38.211Z,24.70
2019-05-28T02:20:10.826Z,24.80
2019-05-28T02:22:40.306Z,24.80
2019-05-28T02:25:09.584Z,24.70
2019-05-28T02:27:38.976Z,24.70
2019-05-28T02:30:15.427Z,24.70
2019-05-28T02:32:44.770Z,24.80
2019-05-28T02:35:14.270Z,24.70
2019-05-28T02:37:43.628Z,24.70
2019-05-28T02:40:12.961Z,24.70
2019-05-28T02:42:42.231Z,24.70
2019-05-28T02:45:11.680Z,24.70
2019-05-28T02:47:41.977Z,24.70
2019-05-28T02:50:11.531Z,24.70
2019-05-28T02:52:41.012Z,24.70
2019-05-28T02:55:10.466Z,24.70
2019-05-28T02:57:41.471Z,24.70
2019-05-28T03:00:14.025Z,24.70
2019-05-28T03:02:50.604Z,24.70
2019-05-28T03:05:19.943Z,24.70
2019-05-28T03:07:49.311Z,24.70
2019-05-28T03:10:58.367Z,24.70
2019-05-28T03:13:01.906Z,24.70
2019-05-28T03:15:31.552Z,24.70
2019-05-28T03:18:00.848Z,24.70
2019-05-28T03:20:30.660Z,24.70
2019-05-28T03:22:59.979Z,24.70
2019-05-28T03:25:29.299Z,24.70
2019-05-28T03:27:58.572Z,24.70
2019-05-28T03:30:27.879Z,24.70
2019-05-28T03:32:57.387Z,24.60
2019-05-28T03:35:26.807Z,24.70
2019-05-28T03:37:56.154Z,24.70
2019-05-28T03:40:42.810Z,24.70
2019-05-28T03:43:12.336Z,24.70
2019-05-28T03:45:41.636Z,24.70
2019-05-28T03:48:10.981Z,24.70
2019-05-28T03:50:40.259Z,24.70
2019-05-28T03:53:09.695Z,24.70
2019-05-28T03:55:38.996Z,24.70
2019-05-28T03:58:08.323Z,24.70
2019-05-28T04:00:37.678Z,24.70
2019-05-28T04:03:06.964Z,24.70
2019-05-28T04:05:37.453Z,24.70
2019-05-28T04:08:06.864Z,24.70
2019-05-28T04:10:36.206Z,24.70
2019-05-28T04:13:05.487Z,24.70
2019-05-28T04:15:34.858Z,24.70
2019-05-28T04:18:04.690Z,24.60
2019-05-28T04:20:34.028Z,24.60
2019-05-28T04:23:06.529Z,24.70
2019-05-28T04:25:35.926Z,24.70
2019-05-28T04:28:05.467Z,24.70
2019-05-28T04:30:34.876Z,24.70
2019-05-28T04:33:05.271Z,24.70
2019-05-28T04:35:34.590Z,24.70
2019-05-28T04:38:03.935Z,24.70
2019-05-28T04:40:33.320Z,24.60
2019-05-28T04:43:02.699Z,24.60
2019-05-28T04:45:31.989Z,24.60
2019-05-28T04:48:01.321Z,24.70
2019-05-28T04:50:30.745Z,24.70
2019-05-28T04:53:00.107Z,24.60
2019-05-28T04:55:29.432Z,24.60
2019-05-28T04:57:58.836Z,24.60
2019-05-28T05:00:28.129Z,24.60
2019-05-28T05:03:00.291Z,24.70
2019-05-28T05:05:28.547Z,24.60
2019-05-28T05:07:58.027Z,24.60
2019-05-28T05:10:28.668Z,24.60
2019-05-28T05:12:57.948Z,24.70
2019-05-28T05:15:27.368Z,24.60
2019-05-28T05:17:56.746Z,24.70
2019-05-28T05:20:26.061Z,24.70
2019-05-28T05:22:55.422Z,24.60
2019-05-28T05:25:25.803Z,24.70
2019-05-28T05:27:55.091Z,24.70
2019-05-28T05:30:24.492Z,24.60
2019-05-28T05:32:53.763Z,24.70
2019-05-28T05:35:23.068Z,24.70
2019-05-28T05:37:52.394Z,24.60
2019-05-28T05:40:21.821Z,24.60
2019-05-28T05:42:51.100Z,24.60
2019-05-28T05:45:20.476Z,24.60
2019-05-28T05:47:49.902Z,24.60
2019-05-28T05:50:19.300Z,24.60
2019-05-28T05:52:48.588Z,24.70
2019-05-28T05:55:17.979Z,24.60
2019-05-28T05:57:48.238Z,24.70
2019-05-28T06:00:17.697Z,24.70
2019-05-28T06:02:47.005Z,24.70
2019-05-28T06:05:16.439Z,24.70
2019-05-28T06:07:45.786Z,24.70
2019-05-28T06:10:15.162Z,24.60
2019-05-28T06:12:44.441Z,24.70
2019-05-28T06:15:13.938Z,24.70
2019-05-28T06:17:43.235Z,24.70
2019-05-28T06:20:12.567Z,24.70
2019-05-28T06:22:41.883Z,24.70
2019-05-28T06:25:12.383Z,24.70
2019-05-28T06:27:41.730Z,24.70
2019-05-28T06:30:11.182Z,24.70
2019-05-28T06:32:40.653Z,24.70
2019-05-28T06:35:10.070Z,24.60
2019-05-28T06:37:39.503Z,24.70
2019-05-28T06:40:09.307Z,24.70
2019-05-28T06:42:40.113Z,24.70
2019-05-28T06:45:09.635Z,24.70
2019-05-28T06:47:39.037Z,24.70
2019-05-28T06:50:12.585Z,24.80
2019-05-28T06:52:42.215Z,24.70
2019-05-28T06:55:11.595Z,24.70
2019-05-28T06:57:40.983Z,24.70
2019-05-28T07:00:11.429Z,24.70
2019-05-28T07:02:40.838Z,24.80
2019-05-28T07:05:10.166Z,24.80
2019-05-28T07:07:39.519Z,24.80
2019-05-28T07:10:09.037Z,24.80
2019-05-28T07:12:38.523Z,24.80
2019-05-28T07:15:07.972Z,24.80
2019-05-28T07:17:37.442Z,24.80
2019-05-28T07:20:08.253Z,24.80
2019-05-28T07:22:37.761Z,24.80
2019-05-28T07:25:08.122Z,24.80
2019-05-28T07:27:37.493Z,24.60
2019-05-28T07:30:10.186Z,24.20
2019-05-28T07:32:40.285Z,23.90
2019-05-28T07:35:10.119Z,23.70
2019-05-28T07:37:39.619Z,23.50
2019-05-28T07:40:09.604Z,23.40
2019-05-28T07:42:39.202Z,23.40
2019-05-28T07:45:08.686Z,23.30
2019-05-28T07:47:38.252Z,23.40
2019-05-28T07:50:08.701Z,23.30
2019-05-28T07:52:39.342Z,23.30
2019-05-28T07:55:08.716Z,23.20
2019-05-28T07:57:38.153Z,23.20
2019-05-28T08:00:07.717Z,23.20
2019-05-28T08:02:37.223Z,23.20
2019-05-28T08:05:06.938Z,23.30
2019-05-28T08:07:36.335Z,23.30
2019-05-28T08:10:09.308Z,23.30
2019-05-28T08:12:39.019Z,23.50
2019-05-28T08:15:10.112Z,23.40
2019-05-28T08:17:40.135Z,23.40
2019-05-28T08:20:10.048Z,23.30
2019-05-28T08:22:42.730Z,23.30
2019-05-28T08:25:27.434Z,23.50
2019-05-28T08:27:42.330Z,23.50
2019-05-28T08:30:11.622Z,23.60
2019-05-28T08:32:41.042Z,23.80
2019-05-28T08:35:10.692Z,23.90
2019-05-28T08:37:40.067Z,24.00
2019-05-28T08:40:09.427Z,24.10
2019-05-28T08:42:38.844Z,24.20
2019-05-28T08:45:08.300Z,24.30
2019-05-28T08:47:43.210Z,24.40
2019-05-28T08:50:10.657Z,24.50
2019-05-28T08:52:40.104Z,24.50
2019-05-28T08:55:10.593Z,24.50
2019-05-28T08:57:40.014Z,24.60
2019-05-28T09:00:09.992Z,24.70
2019-05-28T09:02:40.411Z,24.70
2019-05-28T09:05:25.168Z,24.70
2019-05-28T09:07:41.072Z,24.70
2019-05-28T09:10:10.380Z,24.70
2019-05-28T09:12:39.922Z,24.80
2019-05-28T09:15:09.413Z,24.80
2019-05-28T09:17:38.755Z,24.80
2019-05-28T09:20:08.049Z,24.80
2019-05-28T09:22:37.568Z,24.80
2019-05-28T09:25:06.959Z,24.80
2019-05-28T09:27:36.372Z,24.80
2019-05-28T09:30:07.491Z,24.90
2019-05-28T09:32:37.034Z,25.00
2019-05-28T09:35:07.141Z,25.00
2019-05-28T09:37:36.532Z,25.10
2019-05-28T09:40:06.960Z,25.10
2019-05-28T09:42:36.373Z,25.10
2019-05-28T09:45:21.948Z,25.10
2019-05-28T09:47:38.483Z,25.10
2019-05-28T09:50:27.023Z,25.10
2019-05-28T09:52:53.075Z,25.10
2019-05-28T09:55:09.809Z,25.10
2019-05-28T09:57:47.585Z,25.10
2019-05-28T10:00:16.723Z,25.20
2019-05-28T10:02:47.762Z,25.10
2019-05-28T10:05:17.156Z,25.20
2019-05-28T10:07:46.532Z,25.20
2019-05-28T10:10:15.911Z,25.20
2019-05-28T10:12:46.595Z,25.20
2019-05-28T10:15:16.458Z,25.20
2019-05-28T10:17:45.926Z,25.20
2019-05-28T10:20:15.724Z,25.30
2019-05-28T10:22:45.180Z,25.30
2019-05-28T10:25:15.312Z,25.40
2019-05-28T10:27:59.965Z,25.30
2019-05-28T10:30:16.329Z,25.30
2019-05-28T10:32:45.774Z,25.30
2019-05-28T10:35:15.417Z,25.30
2019-05-28T10:37:44.711Z,25.30
2019-05-28T10:40:14.686Z,25.30
2019-05-28T10:45:08.749Z,25.20
2019-05-28T10:47:38.236Z,25.20
2019-05-28T10:50:08.171Z,25.20
2019-05-28T10:52:37.859Z,25.20
2019-05-28T10:55:08.084Z,25.20
2019-05-28T10:57:37.895Z,25.30
2019-05-28T11:00:11.267Z,25.30
2019-05-28T11:02:42.458Z,25.30
2019-05-28T11:05:12.244Z,25.30
2019-05-28T11:07:41.680Z,25.20
2019-05-28T11:10:22.979Z,25.20
2019-05-28T11:12:42.173Z,25.20
2019-05-28T11:15:13.955Z,25.20
2019-05-28T11:17:43.682Z,25.20
2019-05-28T11:20:14.041Z,25.30
2019-05-28T11:22:44.549Z,25.30
2019-05-28T11:25:14.050Z,25.30
2019-05-28T11:27:43.505Z,25.30
2019-05-28T11:30:15.472Z,25.30
2019-05-28T11:32:46.396Z,25.30
2019-05-28T11:35:16.879Z,25.30
2019-05-28T11:37:46.329Z,25.30
2019-05-28T11:40:18.310Z,25.30
2019-05-28T11:42:47.752Z,25.30
2019-05-28T11:45:18.188Z,25.30
2019-05-28T11:47:51.371Z,25.30
2019-05-28T11:50:21.537Z,25.30
2019-05-28T11:52:50.882Z,25.20
2019-05-28T11:55:20.410Z,25.30
2019-05-28T11:57:52.274Z,25.30
2019-05-28T12:00:23.551Z,25.30
2019-05-28T12:02:53.108Z,25.30
2019-05-28T12:05:22.636Z,25.30
2019-05-28T12:07:52.374Z,25.30
2019-05-28T12:10:22.660Z,25.30
2019-05-28T12:12:52.177Z,25.30
2019-05-28T12:15:21.857Z,25.30
2019-05-28T12:17:51.270Z,25.40
2019-05-28T12:20:21.050Z,25.40
2019-05-28T12:23:08.842Z,25.40
2019-05-28T12:25:21.888Z,25.40
2019-05-28T12:27:51.218Z,25.40
2019-05-28T12:30:21.315Z,25.50
2019-05-28T12:32:52.280Z,25.50
2019-05-28T12:35:30.452Z,25.50
2019-05-28T12:37:54.026Z,25.50
2019-05-28T12:40:23.558Z,25.50
2019-05-28T12:42:53.029Z,25.50
2019-05-28T12:45:34.916Z,25.50
2019-05-28T12:48:09.121Z,25.50
2019-05-28T12:50:24.780Z,25.60
2019-05-28T12:52:54.296Z,25.60
2019-05-28T12:55:27.680Z,25.70
2019-05-28T12:58:00.711Z,25.60
2019-05-28T13:00:31.839Z,25.60
2019-05-28T13:03:07.387Z,25.40
2019-05-28T13:05:38.005Z,25.40
2019-05-28T13:08:10.456Z,25.40
2019-05-28T13:10:39.414Z,25.40
2019-05-28T13:13:10.847Z,25.40
2019-05-28T13:15:42.388Z,25.30
2019-05-28T13:18:11.319Z,25.30
2019-05-28T13:20:40.749Z,25.20
2019-05-28T13:23:10.071Z,25.20
2019-05-28T13:25:39.522Z,25.10
2019-05-28T13:28:09.132Z,25.10
2019-05-28T13:30:39.048Z,25.10
2019-05-28T13:33:11.776Z,25.10
2019-05-28T13:35:41.262Z,25.10
2019-05-28T13:38:26.204Z,25.10
2019-05-28T13:40:45.452Z,25.20
2019-05-28T13:43:16.055Z,25.30
2019-05-28T13:45:45.576Z,25.30
2019-05-28T13:48:15.031Z,25.40
2019-05-28T13:50:44.487Z,25.50
2019-05-28T13:53:13.855Z,25.50
2019-05-28T13:55:44.815Z,25.50
2019-05-28T13:58:14.314Z,25.50
2019-05-28T14:00:43.894Z,25.50
2019-05-28T14:03:15.026Z,25.60
2019-05-28T14:05:44.487Z,25.50
2019-05-28T14:08:16.523Z,25.50
2019-05-28T14:10:45.886Z,25.40
2019-05-28T14:13:15.232Z,25.20
2019-05-28T14:15:44.831Z,25.20
2019-05-28T14:18:14.243Z,25.10
2019-05-28T14:20:43.676Z,25.10
2019-05-28T14:23:13.114Z,25.20
2019-05-28T14:25:44.032Z,25.10
2019-05-28T14:28:15.359Z,25.20
2019-05-28T14:30:59.296Z,25.20
2019-05-28T14:33:19.340Z,25.20
2019-05-28T14:35:48.898Z,25.20
2019-05-28T14:38:18.414Z,25.30
2019-05-28T14:40:48.013Z,25.40
2019-05-28T14:43:17.478Z,25.40
2019-05-28T14:45:46.915Z,25.40
2019-05-28T14:48:16.246Z,25.40
2019-05-28T14:50:45.797Z,25.30
2019-05-28T14:53:15.266Z,25.20
2019-05-28T14:55:44.574Z,25.20
2019-05-28T14:58:14.431Z,25.10
2019-05-28T15:00:44.044Z,25.20
2019-05-28T15:03:13.432Z,25.20
2019-05-28T15:05:43.015Z,25.30
2019-05-28T15:08:13.332Z,25.30
2019-05-28T15:10:42.699Z,25.40
2019-05-28T15:13:12.491Z,25.50
2019-05-28T15:15:44.915Z,25.50
2019-05-28T15:18:14.336Z,25.50
2019-05-28T15:20:43.660Z,25.50
2019-05-28T15:23:13.054Z,25.50
2019-05-28T15:25:44.017Z,25.50
2019-05-28T15:28:13.438Z,25.50
2019-05-28T15:30:42.870Z,25.50
2019-05-28T15:33:12.634Z,25.50
2019-05-28T15:35:42.481Z,25.50
2019-05-28T15:38:11.934Z,25.60
2019-05-28T15:40:41.240Z,25.60
2019-05-28T15:43:10.554Z,25.70
2019-05-28T15:45:39.984Z,25.80
2019-05-28T15:48:09.586Z,25.80
2019-05-28T15:50:39.172Z,25.80
2019-05-28T15:53:09.137Z,25.80
2019-05-28T15:55:38.580Z,25.80
2019-05-28T15:58:11.743Z,25.80
2019-05-28T16:00:40.124Z,25.80
2019-05-28T16:03:09.646Z,25.80
2019-05-28T16:05:39.078Z,25.80
2019-05-28T16:08:08.528Z,25.80
2019-05-28T16:10:37.972Z,25.80
2019-05-28T16:13:07.380Z,25.80
2019-05-28T16:15:36.847Z,25.90
2019-05-28T16:18:06.324Z,25.80
2019-05-28T16:20:36.695Z,25.90
2019-05-28T16:23:06.027Z,25.80
2019-05-28T16:25:35.515Z,25.80
2019-05-28T16:28:04.815Z,25.80
2019-05-28T16:30:34.334Z,25.80
2019-05-28T16:33:03.781Z,25.80
2019-05-28T16:35:33.313Z,25.80
2019-05-28T16:38:02.660Z,25.80
2019-05-28T16:40:32.251Z,25.80
2019-05-28T16:43:01.815Z,25.80
2019-05-28T16:45:31.359Z,25.80
2019-05-28T16:48:00.672Z,25.80
2019-05-28T16:50:30.119Z,25.70
2019-05-28T16:52:59.473Z,25.70
2019-05-28T16:55:28.862Z,25.70
2019-05-28T16:57:58.257Z,25.70
2019-05-28T17:00:27.762Z,25.70
2019-05-28T17:02:57.127Z,25.70
2019-05-28T17:05:26.669Z,25.70
2019-05-28T17:07:56.152Z,25.70
2019-05-28T17:10:33.043Z,25.70
2019-05-28T17:15:23.779Z,25.70
2019-05-28T17:17:53.270Z,25.70
2019-05-28T17:20:22.957Z,25.70
2019-05-28T17:22:55.240Z,25.70
2019-05-28T17:25:23.575Z,25.60
2019-05-28T17:27:52.961Z,25.60
2019-05-28T17:30:24.272Z,25.60
2019-05-28T17:32:55.230Z,25.60
2019-05-28T17:35:24.733Z,25.50
2019-05-28T17:37:54.393Z,25.60
2019-05-28T17:40:23.801Z,25.60
2019-05-28T17:42:53.513Z,25.50
2019-05-28T17:45:23.014Z,25.50
2019-05-28T17:47:52.717Z,25.50
2019-05-28T17:50:22.326Z,25.50
2019-05-28T17:52:52.030Z,25.50
2019-05-28T17:55:22.133Z,25.50
2019-05-28T17:57:52.006Z,25.50
2019-05-28T18:00:21.516Z,25.50
2019-05-28T18:02:51.211Z,25.50
2019-05-28T18:05:20.944Z,25.40
2019-05-28T18:07:50.781Z,25.40
2019-05-28T18:10:20.463Z,25.40
2019-05-28T18:12:50.067Z,25.40
2019-05-28T18:15:19.592Z,25.40
2019-05-28T18:17:49.100Z,25.40
2019-05-28T18:20:19.017Z,25.40
2019-05-28T18:22:48.632Z,25.40
2019-05-28T18:25:20.504Z,25.40
2019-05-28T18:27:49.478Z,25.40
2019-05-28T18:30:19.249Z,25.30
2019-05-28T18:32:49.116Z,25.40
2019-05-28T18:35:18.940Z,25.30
2019-05-28T18:37:48.757Z,25.30
2019-05-28T18:40:18.581Z,25.30
2019-05-28T18:42:48.408Z,25.30
2019-05-28T18:45:21.076Z,25.30
2019-05-28T18:47:50.892Z,25.30
2019-05-28T18:50:20.627Z,25.30
2019-05-28T18:52:50.309Z,25.30
2019-05-28T18:55:23.322Z,25.30
2019-05-28T18:57:52.945Z,25.30
2019-05-28T19:00:22.649Z,25.30
2019-05-28T19:02:52.346Z,25.30
2019-05-28T19:05:22.162Z,25.30
2019-05-28T19:07:52.184Z,25.20
2019-05-28T19:10:21.890Z,25.20
2019-05-28T19:12:51.616Z,25.10
2019-05-28T19:15:21.422Z,25.00
2019-05-28T19:17:51.247Z,24.90
2019-05-28T19:20:20.963Z,24.90
2019-05-28T19:22:50.759Z,24.80
2019-05-28T19:25:20.372Z,24.80
2019-05-28T19:27:50.098Z,24.80
2019-05-28T19:30:34.397Z,24.80
2019-05-28T19:33:05.387Z,24.70
2019-05-28T19:35:35.109Z,24.70
2019-05-28T19:38:04.723Z,24.70
2019-05-28T19:40:36.968Z,24.60
2019-05-28T19:43:08.729Z,24.60
2019-05-28T19:45:38.320Z,24.60
2019-05-28T19:48:08.434Z,24.60
2019-05-28T19:50:39.131Z,24.60
2019-05-28T19:53:08.759Z,24.50
2019-05-28T19:55:38.389Z,24.60
2019-05-28T19:58:08.871Z,24.50
2019-05-28T20:00:39.181Z,24.50
2019-05-28T20:03:08.817Z,24.50
2019-05-28T20:05:38.438Z,24.50
2019-05-28T20:08:08.406Z,24.50
2019-05-28T20:10:38.034Z,24.50
2019-05-28T20:13:07.676Z,24.50
2019-05-28T20:15:37.194Z,24.50
2019-05-28T20:18:07.023Z,24.50
2019-05-28T20:20:36.517Z,24.50
2019-05-28T20:23:05.864Z,24.50
2019-05-28T20:25:35.194Z,24.50
2019-05-28T20:28:04.575Z,24.40
2019-05-28T20:30:33.973Z,24.40
2019-05-28T20:33:03.460Z,24.40
2019-05-28T20:35:32.820Z,24.30
2019-05-28T20:38:05.864Z,24.30
2019-05-28T20:40:33.120Z,24.30
2019-05-28T20:43:02.306Z,24.50
2019-05-28T20:45:31.733Z,24.50
2019-05-28T20:48:01.007Z,24.60
2019-05-28T20:50:30.397Z,24.60
2019-05-28T20:52:59.661Z,24.60
2019-05-28T20:55:28.923Z,24.60
2019-05-28T20:57:58.349Z,24.70
2019-05-28T21:00:28.734Z,24.70
2019-05-28T21:02:58.009Z,24.70
2019-05-28T21:05:27.253Z,24.70
2019-05-28T21:07:56.516Z,24.70
2019-05-28T21:10:25.802Z,24.70
2019-05-28T21:12:55.083Z,24.70
2019-05-28T21:15:24.387Z,24.80
2019-05-28T21:17:53.771Z,24.70
2019-05-28T21:20:23.079Z,24.80
2019-05-28T21:22:53.657Z,24.80
2019-05-28T21:25:26.316Z,24.80
2019-05-28T21:27:56.474Z,24.80
2019-05-28T21:30:25.822Z,24.80
2019-05-28T21:32:55.103Z,24.80
2019-05-28T21:35:24.341Z,24.80
2019-05-28T21:37:53.588Z,24.80
2019-05-28T21:40:22.796Z,24.80
2019-05-28T21:43:01.277Z,24.80
2019-05-28T21:45:23.100Z,24.80
2019-05-28T21:47:52.699Z,24.80
2019-05-28T21:50:22.199Z,24.80
2019-05-28T21:52:52.746Z,24.80
2019-05-28T21:55:22.170Z,24.80
2019-05-28T21:57:51.483Z,24.80
2019-05-28T22:00:24.989Z,24.80
2019-05-28T22:02:56.507Z,24.80
2019-05-28T22:05:25.774Z,24.80
2019-05-28T22:07:55.345Z,24.80
2019-05-28T22:10:24.704Z,24.80
2019-05-28T22:12:53.879Z,24.80
2019-05-28T22:15:23.118Z,24.80
2019-05-28T22:17:52.537Z,24.80
2019-05-28T22:20:21.854Z,24.80
2019-05-28T22:22:51.127Z,24.80
2019-05-28T22:25:20.378Z,24.80
2019-05-28T22:27:49.644Z,24.80
2019-05-28T22:30:19.117Z,24.80
2019-05-28T22:32:48.377Z,24.80
2019-05-28T22:35:17.635Z,24.80
2019-05-28T22:37:46.912Z,24.80
2019-05-28T22:40:16.150Z,24.80
2019-05-28T22:42:45.408Z,24.80
2019-05-28T22:45:14.855Z,24.80
2019-05-28T22:47:44.131Z,24.80
2019-05-28T22:50:22.212Z,24.80
2019-05-28T22:52:44.466Z,24.80
2019-05-28T22:55:14.681Z,24.80
2019-05-28T22:57:43.985Z,24.80
2019-05-28T23:00:13.216Z,24.80
2019-05-28T23:02:42.619Z,24.80
2019-05-28T23:05:11.988Z,24.80
2019-05-28T23:07:41.432Z,24.80
2019-05-28T23:10:10.673Z,24.80
2019-05-28T23:12:39.986Z,24.80
2019-05-28T23:15:10.511Z,24.80
2019-05-28T23:17:39.903Z,24.80
2019-05-28T23:20:09.188Z,24.80
2019-05-28T23:22:38.411Z,24.80
2019-05-28T23:25:09.714Z,24.80
2019-05-28T23:27:39.124Z,24.80
2019-05-28T23:30:21.442Z,24.80
2019-05-28T23:32:39.316Z,24.80
2019-05-28T23:35:08.834Z,24.80
2019-05-28T23:37:38.421Z,24.80
2019-05-28T23:40:07.657Z,24.80
2019-05-28T23:42:36.923Z,24.80
2019-05-28T23:45:07.772Z,24.80
2019-05-28T23:47:37.232Z,24.80
2019-05-28T23:50:08.857Z,24.80
2019-05-28T23:52:38.507Z,24.80
2019-05-28T23:55:07.830Z,24.70
2019-05-28T23:57:37.115Z,24.80
